Bonito, Brazil
Current Conditions -  °F | °C
As of 6:00 PM on Tuesday 21 Oct 2014 (Local Time) from SBCG Reporting Station
Few Clouds Few Clouds  
Wind Chill: 82°   Ceiling: Unl
Heat Index: 83°   Visibility: 6mi
Dew Point: 63°   Wind: 10mph
Humidity: 51%   Direction: 160°SSE
Pressure: 29.94"   Gusts: NA
Location:  21.12°S, 56.48°W
Report Text: SBCG 212100Z 16009KT 9999 FEW045 28/17 Q1014
Loading
Personal Weather Stations






























Interactive Weather Map
Tropical Storm Tracking
New forecast layout! Learn more

10-Day Weather Forecast

Advertisements
Track Severe Weather on mobile